Latest Coastal Weather Observations for Cape Naturaliste

IDW60701

Issued at 9:32 am WST Tuesday 23 December 2014 (issued every 10 minutes, with the page automatically refreshed every 10 minutes)

About coastal observations | Map of coastal stations | Coastal observations for WA | Marine services | Other Formats
Station Details ID: 009519 Name: CAPE NATURALISTE Lat: -33.54 Lon: 115.02 Height: 109.0 m
Data from the previous 72 hours. | See also: Recent months at Cape Naturaliste
Date/Time
WST
Temp

°C
Wind Pressure Rain
since 9am
mm
Weather Cloud Vis
km
Sea
Height
m
Swell
Dir
 
Speed
knots
Gust
knots
hPa Trend Height
m
Period
s
Dir
23/09:30am 18.4 ESE 14 22 1021.2 - 0.0 - - - - - - -
23/09:00am 17.8 ESE 17 24 1020.9 - 0.0 - - - - - - -
23/08:30am 16.4 ESE 16 23 1020.9 - 0.0 - - - - - - -
23/08:00am 16.0 SE 14 19 1021.5 - 0.0 - - - - - - -
23/07:30am 15.3 ESE 16 23 1021.1 - 0.0 - - - - - - -
23/07:00am 14.8 ESE 17 24 1020.7 - 0.0 - - - - - - -
23/06:30am 14.6 ESE 17 23 1020.8 - 0.0 - - - - - - -
23/06:00am 14.0 ESE 17 25 1020.5 - 0.0 - - - - - - -
23/05:30am 13.6 SE 16 23 1020.3 - 0.0 - - - - - - -
23/05:00am 13.4 SE 14 22 1020.0 - 0.0 - - - - - - -
23/04:30am 13.4 SE 16 21 1019.4 - 0.0 - - - - - - -
23/04:00am 13.3 SE 16 23 1019.2 - 0.0 - - - - - - -
23/03:30am 13.4 SE 15 22 1019.1 - 0.0 - - - - - - -
23/03:00am 13.2 SE 14 21 1018.9 - 0.0 - - - - - - -
23/02:30am 13.3 SE 13 19 1018.9 - 0.0 - - - - - - -
23/02:00am 13.5 SE 15 23 1019.0 - 0.0 - - - - - - -
23/01:30am 13.5 SE 13 18 1019.3 - 0.0 - - - - - - -
23/01:00am 13.7 SE 15 21 1019.3 - 0.0 - - - - - - -
23/12:30am 14.1 SE 17 23 1019.0 - 0.0 - - - - - - -
23/12:00am 14.3 ESE 17 25 1018.8 - 0.0 - - - - - - -
 
Date/Time
WST
Temp

°C
Wind Pressure Rain
since 9am
mm
Weather Cloud Vis
km
Sea
Height
m
Swell
Dir
 
Speed
knots
Gust
knots
hPa Trend Height
m
Period
s
Dir
22/11:30pm 14.6 ESE 19 26 1018.9 - 0.0 - - - - - - -
22/11:00pm 14.9 ESE 20 28 1018.8 - 0.0 - - - - - - -
22/10:35pm 15.1 SE 19 29 1018.5 - 0.0 - - - - - - -
22/10:30pm 15.2 SE 17 26 1018.5 - 0.0 - - - - - - -
22/10:00pm 15.3 SSE 15 24 1018.5 - 0.0 - - - - - - -
22/09:34pm 15.2 SSE 15 26 1018.3 - 0.0 - - - - - - -
22/09:30pm 15.2 SSE 15 22 1018.4 - 0.0 - - - - - - -
22/09:00pm 15.3 SSE 15 22 1018.3 - 0.0 - - - - - - -
22/08:30pm 15.5 S 13 17 1018.3 - 0.0 - - - - - - -
22/08:00pm 15.8 S 12 19 1018.3 - 0.0 - - - - - - -
22/07:30pm 16.4 S 14 19 1018.1 - 0.0 - - - - - - -
22/07:00pm 17.1 S 16 24 1017.7 - 0.0 - - - - - - -
22/06:30pm 17.7 S 16 25 1017.7 - 0.0 - - - - - - -
22/06:20pm 18.1 S 18 28 1017.5 - 0.0 - - - - - - -
22/06:00pm 19.4 S 15 23 1017.3 - 0.0 - - - - - - -
22/05:30pm 19.6 SSW 23 31 1016.9 - 0.0 - - - - - - -
22/05:00pm 19.9 SSW 23 32 1016.6 - 0.0 - - - - - - -
22/04:52pm 20.2 SSW 22 32 1016.6 - 0.0 - - - - - - -
22/04:30pm 20.0 SSW 25 33 1016.6 - 0.0 - - - - - - -
22/04:08pm 20.5 SSW 23 33 1016.4 - 0.0 - - - - - - -
22/04:00pm 20.4 SSW 24 32 1016.4 - 0.0 - - - - - - -
22/03:48pm 20.4 SSW 24 34 1016.6 - 0.0 - - - - - - -
22/03:30pm 20.8 SSW 23 29 1016.7 - 0.0 - - - - - - -
22/03:11pm 21.1 SSW 22 33 1017.0 - 0.0 - - - - - - -
22/03:00pm 21.0 SSW 22 30 1017.1 - 0.0 - - - - - - -
22/02:30pm 20.9 SSW 22 30 1017.4 - 0.0 - - - - - - -
22/02:00pm 21.1 SSW 21 28 1017.6 - 0.0 - - - - - - -
22/01:30pm 21.5 SSW 18 26 1017.8 - 0.0 - - - - - - -
22/01:00pm 21.6 SSW 15 20 1018.3 - 0.0 - - - - - - -
22/12:30pm 22.3 SW 14 18 1018.6 - 0.0 - - - - - - -
22/12:00pm 22.9 SW 12 17 1018.7 - 0.0 - - - - - - -
22/11:30am 22.2 WSW 5 8 1018.8 - 0.0 - - - - - - -
22/11:00am 22.1 NE 8 11 1019.1 - 0.0 - - - - - - -
22/10:30am 22.5 ENE 9 13 1019.2 - 0.0 - - - - - - -
22/10:00am 21.5 E 12 17 1018.9 - 0.0 - - - - - - -
22/09:30am 20.5 ESE 12 16 1019.0 - 0.0 - - - - - - -
22/09:00am 20.2 SE 11 16 1019.2 - 0.0 - - - - - - -
22/08:30am 18.8 ESE 14 19 1019.2 - 0.0 - - - - - - -
22/08:00am 18.7 SE 12 18 1019.3 - 0.0 - - - - - - -
22/07:30am 16.6 SE 15 20 1019.3 - 0.0 - - - - - - -
22/07:00am 15.6 SE 16 22 1019.2 - 0.0 - - - - - - -
22/06:30am 14.5 SE 15 21 1019.0 - 0.0 - - - - - - -
22/06:00am 13.2 SE 16 19 1018.6 - 0.0 - - - - - - -
22/05:30am 12.1 SE 15 19 1018.4 - 0.0 - - - - - - -
22/05:00am 12.0 SE 15 20 1018.1 - 0.0 - - - - - - -
22/04:30am 12.1 SE 16 21 1017.8 - 0.0 - - - - - - -
22/04:00am 12.2 SE 16 23 1017.6 - 0.0 - - - - - - -
22/03:30am 12.4 SE 17 23 1017.3 - 0.0 - - - - - - -
22/03:00am 12.7 SE 17 24 1017.5 - 0.0 - - - - - - -
22/02:30am 12.8 SE 18 25 1017.3 - 0.0 - - - - - - -
22/02:00am 12.9 SE 18 25 1017.3 - 0.0 - - - - - - -
22/01:30am 13.1 SE 18 27 1017.5 - 0.0 - - - - - - -
22/01:00am 13.2 SE 19 27 1017.8 - 0.0 - - - - - - -
22/12:30am 13.4 SE 18 24 1018.1 - 0.0 - - - - - - -
22/12:00am 13.4 SSE 15 23 1018.3 - 0.0 - - - - - - -
 
Date/Time
WST
Temp

°C
Wind Pressure Rain
since 9am
mm
Weather Cloud Vis
km
Sea
Height
m
Swell
Dir
 
Speed
knots
Gust
knots
hPa Trend Height
m
Period
s
Dir
21/11:30pm 13.6 SSE 16 24 1018.3 - 0.0 - - - - - - -
21/11:00pm 13.8 SSE 14 22 1018.4 - 0.0 - - - - - - -
21/10:30pm 14.0 S 11 17 1018.6 - 0.0 - - - - - - -
21/10:00pm 14.3 SSE 13 19 1018.3 - 0.0 - - - - - - -
21/09:30pm 14.5 SSE 11 18 1018.4 - 0.0 - - - - - - -
21/09:00pm 14.9 S 13 18 1017.9 - 0.0 - - - - - - -
21/08:30pm 15.3 S 14 20 1017.5 - 0.0 - - - - - - -
21/08:00pm 15.8 S 11 17 1017.7 - 0.0 - - - - - - -
21/07:30pm 16.7 S 10 14 1017.6 - 0.0 - - - - - - -
21/07:00pm 18.5 S 12 16 1017.2 - 0.0 - - - - - - -
21/06:30pm 20.0 SSW 15 20 1017.0 - 0.0 - - - - - - -
21/06:00pm 21.4 S 14 19 1016.5 - 0.0 - - - - - - -
21/05:30pm 20.4 SSW 18 24 1016.5 - 0.0 - - - - - - -
21/05:26pm 20.5 SSW 18 28 1016.6 - 0.0 - - - - - - -
21/05:00pm 20.2 SSW 22 29 1016.7 - 0.0 - - - - - - -
21/04:39pm 20.6 SSW 22 32 1016.7 - 0.0 - - - - - - -
21/04:30pm 20.4 SSW 23 32 1016.9 - 0.0 - - - - - - -
21/04:00pm 21.0 SSW 23 33 1016.9 - 0.0 - - - - - - -
21/03:51pm 20.8 SSW 23 33 1016.9 - 0.0 - - - - - - -
21/03:30pm 21.2 SSW 21 29 1017.2 - 0.0 - - - - - - -
21/03:00pm 21.8 SSW 20 26 1017.4 - 0.0 - - - - - - -
21/02:30pm 22.5 SSW 17 25 1017.6 - 0.0 - - - - - - -
21/02:00pm 22.2 SSW 16 22 1018.1 - 0.0 - - - - - - -
21/01:30pm 22.9 SW 12 17 1018.4 - 0.0 - - - - - - -
21/01:00pm 22.1 NNW 8 11 1018.6 - 0.0 - - - - - - -
21/12:30pm 22.7 NNE 7 10 1018.8 - 0.0 - - - - - - -
21/12:00pm 22.7 E 9 14 1019.2 - 0.0 - - - - - - -
21/11:30am 22.4 E 13 16 1019.6 - 0.0 - - - - - - -
21/11:00am 23.3 SE 12 20 1019.6 - 0.0 - - - - - - -
21/10:30am 22.1 ESE 13 19 1019.4 - 0.0 - - - - - - -
21/10:00am 21.9 ESE 13 19 1019.5 - 0.0 - - - - - - -
21/09:30am 19.8 SE 14 19 1019.6 - 0.0 - - - - - - -
21/09:00am 18.7 SE 15 21 1019.5 - 0.0 - - - - - - -
21/08:30am 17.6 SSE 15 21 1019.7 - 0.0 - - - - - - -
21/08:00am 17.2 SSE 15 21 1019.7 - 0.0 - - - - - - -
21/07:47am 17.2 SE 16 26 1019.6 - 0.0 - - - - - - -
21/07:30am 16.8 SE 14 19 1019.6 - 0.0 - - - - - - -
21/07:00am 17.2 SSE 9 13 1019.4 - 0.0 - - - - - - -
21/06:30am 15.1 SSE 8 12 1019.3 - 0.0 - - - - - - -
21/06:00am 14.3 SSE 8 11 1018.9 - 0.0 - - - - - - -
21/05:30am 13.1 S 8 10 1018.5 - 0.0 - - - - - - -
21/05:00am 13.2 SSE 6 9 1018.4 - 0.0 - - - - - - -
21/04:30am 13.7 SSE 10 15 1018.1 - 0.0 - - - - - - -
21/04:00am 13.8 SSE 10 13 1018.0 - 0.0 - - - - - - -
21/03:30am 14.5 SSE 14 21 1017.8 - 0.0 - - - - - - -
21/03:00am 14.4 SSE 14 19 1017.4 - 0.0 - - - - - - -
21/02:30am 14.4 S 12 15 1017.4 - 0.0 - - - - - - -
21/02:00am 14.8 S 12 18 1017.3 - 0.0 - - - - - - -
21/01:30am 15.1 S 12 17 1017.6 - 0.0 - - - - - - -
21/01:00am 15.1 SSE 10 14 1017.9 - 0.0 - - - - - - -
21/12:30am 15.1 SSE 11 17 1017.8 - 0.0 - - - - - - -
21/12:00am 15.4 SSE 13 17 1017.7 - 0.0 - - - - - - -
 
Date/Time
WST
Temp

°C
Wind Pressure Rain
since 9am
mm
Weather Cloud Vis
km
Sea
Height
m
Swell
Dir
 
Speed
knots
Gust
knots
hPa Trend Height
m
Period
s
Dir
20/11:30pm 15.6 S 13 18 1017.7 - 0.0 - - - - - - -
20/11:00pm 15.7 SSE 12 16 1017.5 - 0.0 - - - - - - -
20/10:30pm 15.9 SSE 13 18 1017.3 - 0.0 - - - - - - -
20/10:00pm 16.2 SSE 12 16 1017.3 - 0.0 - - - - - - -
20/09:30pm 16.7 SSE 14 19 1017.1 - 0.0 - - - - - - -
20/09:00pm 16.9 SSE 12 18 1017.0 - 0.0 - - - - - - -
20/08:30pm 17.1 SSE 14 21 1016.4 - 0.0 - - - - - - -
20/08:00pm 17.5 SSE 15 21 1015.9 - 0.0 - - - - - - -
20/07:32pm 17.8 SSE 17 27 1015.5 - 0.0 - - - - - - -
20/07:30pm 17.9 SSE 18 27 1015.5 - 0.0 - - - - - - -
20/07:00pm 18.3 S 21 32 1014.8 - 0.0 - - - - - - -
20/06:30pm 19.9 S 19 31 1014.2 - 0.0 - - - - - - -
20/06:02pm 21.0 S 20 33 1013.6 - 0.0 - - - - - - -
20/06:00pm 21.4 S 18 27 1013.6 - 0.0 - - - - - - -
20/05:43pm 22.1 S 19 29 1013.3 - 0.0 - - - - - - -
20/05:30pm 22.3 S 21 28 1013.0 - 0.0 - - - - - - -
20/05:03pm 23.1 S 21 31 1012.6 - 0.0 - - - - - - -
20/05:00pm 23.0 S 22 31 1012.6 - 0.0 - - - - - - -
20/04:33pm 24.0 SSE 20 30 1012.4 - 0.0 - - - - - - -
20/04:30pm 24.3 S 21 30 1012.4 - 0.0 - - - - - - -
20/04:02pm 24.1 SSE 24 34 1012.1 - 0.0 - - - - - - -
20/04:00pm 24.2 SSE 24 32 1012.1 - 0.0 - - - - - - -
20/03:31pm 25.0 S 21 31 1012.2 - 0.0 - - - - - - -
20/03:30pm 24.9 S 22 31 1012.2 - 0.0 - - - - - - -
20/03:02pm 24.6 SSE 21 33 1012.1 - 0.0 - - - - - - -
20/03:00pm 24.6 SSE 20 29 1012.1 - 0.0 - - - - - - -
20/02:30pm 24.6 S 23 33 1012.0 - 0.0 - - - - - - -
20/02:00pm 24.9 S 25 37 1011.6 - 0.0 - - - - - - -
20/01:30pm 25.6 S 22 34 1011.5 - 0.0 - - - - - - -
20/01:04pm 26.2 S 21 31 1011.4 - 0.0 - - - - - - -
20/01:00pm 25.8 S 23 32 1011.4 - 0.0 - - - - - - -
20/12:30pm 25.2 S 24 34 1011.2 - 0.0 - - - - - - -
20/12:00pm 23.7 SSW 23 34 1011.0 - 0.0 - - - - - - -
20/11:42am 22.8 SSW 23 35 1011.0 - 0.0 - - - - - - -
20/11:30am 23.1 SSW 23 31 1011.0 - 0.0 - - - - - - -
20/11:06am 25.8 SSW 20 30 1010.6 - 0.0 - - - - - - -
20/11:00am 25.0 SSW 21 28 1010.6 - 0.0 - - - - - - -
20/10:44am 24.6 S 19 31 1010.5 - 0.0 - - - - - - -
20/10:30am 23.0 SSW 21 29 1010.5 - 0.0 - - - - - - -
20/10:02am 22.5 SSW 20 30 1010.4 - 0.0 - - - - - - -
20/10:00am 23.4 SSW 19 27 1010.5 - 0.0 - - - - - - -

Other Formats:

Comma delimited format used in spreadsheet applications
http://www.bom.gov.au/fwo/IDW60701/IDW60701.94600.axf

JavaScript Object Notation format (JSON) in row-major order
http://www.bom.gov.au/fwo/IDW60701/IDW60701.94600.json